Temp: 11.6°C   Baro: 1004.9mb
  Wind: 8.1mph   Dir: W (269°)
  Rain: 7.6mm (0.0mm/hr)
  Solar: 63W/m2  Hum: 91%
 
Bath Spa Weather Historical Data
Daily Summary for January 20, 2020 Units:  English    Metric   Both
Next Day »
Daily Weekly Monthly Yearly Custom
  High: Low: Average:
Temperature: 46.6 °F 29.7 °F 35.6 °F
Dew Point: 39.9 °F 28.2 °F 32.9 °F
Humidity: 95% 76% 90%
Wind Speed: 8.1mph 0mph 0.8mph
Wind Gust: 8mph - -
Wind direction- - WNW
Pressure: 31 in 30.9 in -
Precipitation: 0.01 in    
Historical Graphs
 
 
Tabular Data for January 20, 2020
Time Temperature Dew Point Pressure Wind direction Wind Speed Wind Gust Humidity Rainfall Rate (Hourly) solar
00:00 32.4 °F 30.6 °F 31 in Calm     93% 0 in 0.00 W/m2
00:05 32.5 °F 30.7 °F 31 in Calm   1 mph 93% 0 in 0.00 W/m2
00:10 32.4 °F 30.6 °F 31 in NW 0.9 mph 2 mph 93% 0 in 0.00 W/m2
00:15 32.4 °F 30.6 °F 31 in NW 0.9 mph 1 mph 93% 0 in 0.00 W/m2
00:20 32.5 °F 30.7 °F 31 in NW 0.9 mph 1 mph 93% 0 in 0.00 W/m2
00:25 32.5 °F 30.7 °F 31 in Calm   1 mph 93% 0 in 0.00 W/m2
00:30 32.5 °F 30.7 °F 31 in Calm     93% 0 in 0.00 W/m2
00:35 32.5 °F 30.7 °F 31 in Calm   1 mph 93% 0 in 0.00 W/m2
00:40 32.7 °F 30.9 °F 31 in Calm   1 mph 93% 0 in 0.00 W/m2
00:45 32.7 °F 30.9 °F 31 in Calm   1 mph 93% 0 in 0.00 W/m2
00:50 32.9 °F 31.1 °F 31 in Calm     93% 0 in 0.00 W/m2
00:55 32.9 °F 31.1 °F 31 in Calm     93% 0 in 0.00 W/m2
01:00 32.9 °F 31.1 °F 31 in Calm   1 mph 93% 0 in 0.00 W/m2
01:05 32.9 °F 31.1 °F 31 in Calm     93% 0 in 0.00 W/m2
01:10 33.1 °F 31.3 °F 31 in NW 0.9 mph 1 mph 93% 0 in 0.00 W/m2
01:15 32.7 °F 30.9 °F 31 in NW 0.9 mph 1 mph 93% 0 in 0.00 W/m2
01:20 32.7 °F 30.9 °F 31 in Calm   1 mph 93% 0 in 0.00 W/m2
01:25 32.5 °F 30.7 °F 31 in Calm     93% 0 in 0.00 W/m2
01:30 32.5 °F 30.7 °F 31 in Calm     93% 0 in 0.00 W/m2
01:35 32.5 °F 30.7 °F 31 in Calm     93% 0 in 0.00 W/m2
01:40 32.7 °F 31.1 °F 31 in Calm     94% 0 in 0.00 W/m2
01:45 32.5 °F 30.9 °F 31 in Calm   1 mph 94% 0 in 0.00 W/m2
01:50 32.5 °F 30.9 °F 31 in Calm   1 mph 94% 0 in 0.00 W/m2
01:55 32.4 °F 30.6 °F 31 in NW 0.9 mph 1 mph 93% 0 in 0.00 W/m2
02:00 32.2 °F 30.4 °F 31 in Calm   1 mph 93% 0 in 0.00 W/m2
02:05 32.2 °F 30.4 °F 31 in Calm     93% 0 in 0.00 W/m2
02:10 31.8 °F 30.4 °F 31 in Calm     94% 0 in 0.00 W/m2
02:15 31.6 °F 30.2 °F 31 in Calm     94% 0 in 0.00 W/m2
02:20 31.6 °F 29.8 °F 31 in Calm     93% 0 in 0.00 W/m2
02:25 31.6 °F 29.8 °F 31 in Calm     93% 0 in 0.00 W/m2
02:30 31.5 °F 29.7 °F 31 in Calm     93% 0 in 0.00 W/m2
02:35 31.5 °F 30 °F 31 in Calm     94% 0 in 0.00 W/m2
02:40 31.5 °F 30 °F 31 in Calm   1 mph 94% 0 in 0.00 W/m2
02:45 31.3 °F 29.8 °F 31 in Calm     94% 0 in 0.00 W/m2
02:50 31.1 °F 29.7 °F 31 in NW 0.9 mph 2 mph 94% 0 in 0.00 W/m2
02:55 31.1 °F 29.7 °F 31 in NW 0.9 mph 1 mph 94% 0 in 0.00 W/m2
03:00 31.1 °F 29.7 °F 31 in NW 0.9 mph 1 mph 94% 0 in 0.00 W/m2
03:05 30.9 °F 29.5 °F 31 in Calm   1 mph 94% 0 in 0.00 W/m2
03:10 30.9 °F 29.5 °F 31 in Calm   1 mph 94% 0 in 0.00 W/m2
03:15 30.7 °F 29.3 °F 31 in Calm   1 mph 94% 0 in 0.00 W/m2
03:20 30.7 °F 29.3 °F 31 in Calm   1 mph 94% 0 in 0.00 W/m2
03:25 30.6 °F 29.1 °F 31 in NW 0.9 mph 2 mph 94% 0 in 0.00 W/m2
03:30 30.6 °F 29.1 °F 31 in Calm     94% 0 in 0.00 W/m2
03:35 30.6 °F 29.1 °F 31 in Calm     94% 0 in 0.00 W/m2
03:40 30.6 °F 29.1 °F 31 in Calm   2 mph 94% 0 in 0.00 W/m2
03:45 30.7 °F 29.3 °F 31 in Calm     94% 0 in 0.00 W/m2
03:50 30.7 °F 29.3 °F 31 in Calm   1 mph 94% 0 in 0.00 W/m2
03:55 30.6 °F 29.1 °F 31 in Calm     94% 0 in 0.00 W/m2
04:00 30.6 °F 29.1 °F 31 in Calm   1 mph 94% 0 in 0.00 W/m2
04:05 30.6 °F 29.1 °F 31 in Calm   1 mph 94% 0 in 0.00 W/m2
04:10 30.6 °F 29.1 °F 31 in Calm     94% 0 in 0.00 W/m2
04:15 30.6 °F 29.1 °F 31 in Calm   1 mph 94% 0 in 0.00 W/m2
04:20 30.4 °F 28.9 °F 31 in Calm   1 mph 94% 0 in 0.00 W/m2
04:25 30.4 °F 28.9 °F 31 in Calm     94% 0 in 0.00 W/m2
04:30 30.4 °F 28.9 °F 31 in Calm     94% 0 in 0.00 W/m2
04:35 30 °F 28.6 °F 31 in Calm     94% 0 in 0.00 W/m2
04:40 30.2 °F 28.8 °F 31 in Calm   1 mph 94% 0 in 0.00 W/m2
04:45 30.2 °F 28.8 °F 31 in Calm     94% 0 in 0.00 W/m2
04:50 30.2 °F 28.8 °F 31 in Calm     94% 0 in 0.00 W/m2
04:55 30 °F 28.6 °F 31 in Calm     94% 0 in 0.00 W/m2
05:00 30 °F 28.6 °F 31 in Calm     94% 0 in 0.00 W/m2
05:05 29.8 °F 28.4 °F 31 in Calm   1 mph 94% 0 in 0.00 W/m2
05:10 29.8 °F 28.4 °F 31 in Calm   1 mph 94% 0 in 0.00 W/m2
05:15 29.8 °F 28.4 °F 31 in Calm     94% 0 in 0.00 W/m2
05:20 30 °F 28.6 °F 31 in Calm     94% 0 in 0.00 W/m2
05:25 30 °F 28.6 °F 31 in Calm     94% 0 in 0.00 W/m2
05:30 29.8 °F 28.4 °F 31 in Calm     94% 0 in 0.00 W/m2
05:35 29.8 °F 28.4 °F 31 in Calm   1 mph 94% 0 in 0.00 W/m2
05:40 29.8 °F 28.4 °F 31 in Calm     94% 0 in 0.00 W/m2
05:45 29.8 °F 28.4 °F 31 in Calm   1 mph 94% 0 in 0.00 W/m2
05:50 30 °F 28.6 °F 31 in NW 0.9 mph 2 mph 94% 0 in 0.00 W/m2
05:55 30 °F 28.6 °F 31 in Calm   2 mph 94% 0 in 0.00 W/m2
06:00 30 °F 28.6 °F 31 in Calm     94% 0 in 0.00 W/m2
06:05 29.8 °F 28.4 °F 31 in Calm     94% 0 in 0.00 W/m2
06:10 30 °F 28.6 °F 31 in Calm   1 mph 94% 0 in 0.00 W/m2
06:15 29.8 °F 28.4 °F 31 in Calm     94% 0 in 0.00 W/m2
06:20 29.8 °F 28.4 °F 31 in Calm     94% 0 in 0.00 W/m2
06:25 29.8 °F 28.4 °F 31 in Calm   1 mph 94% 0 in 0.00 W/m2
06:31 29.8 °F 28.4 °F 31 in Calm     94% 0 in 0.00 W/m2
06:35 30 °F 28.6 °F 31 in Calm     94% 0 in 0.00 W/m2
06:40 29.8 °F 28.4 °F 31 in Calm     94% 0 in 0.00 W/m2
06:45 29.8 °F 28.4 °F 31 in NW 2 mph 2 mph 94% 0 in 0.00 W/m2
06:50 29.8 °F 28.4 °F 31 in NW 0.9 mph 1 mph 94% 0 in 0.00 W/m2
06:55 29.8 °F 28.4 °F 31 in Calm     94% 0 in 0.00 W/m2
07:00 29.8 °F 28.4 °F 31 in Calm     94% 0 in 0.00 W/m2
07:05 29.8 °F 28.4 °F 31 in Calm   1 mph 94% 0 in 0.00 W/m2
07:10 29.8 °F 28.4 °F 31 in Calm     94% 0 in 0.00 W/m2
07:15 29.7 °F 28.2 °F 31 in Calm     94% 0 in 0.00 W/m2
07:20 29.7 °F 28.2 °F 31 in Calm     94% 0 in 0.00 W/m2
07:25 29.8 °F 28.4 °F 31 in Calm   1 mph 94% 0 in 0.00 W/m2
07:31 29.8 °F 28.4 °F 31 in Calm   1 mph 94% 0 in 0.00 W/m2
07:35 29.8 °F 28.4 °F 31 in Calm   1 mph 94% 0 in 0.00 W/m2
07:40 30 °F 28.6 °F 31 in Calm   1 mph 94% 0 in 0.00 W/m2
07:45 30.2 °F 28.8 °F 31 in Calm     94% 0 in 0.00 W/m2
07:50 30.4 °F 28.9 °F 31 in Calm   1 mph 94% 0 in 0.00 W/m2
07:55 30.4 °F 28.9 °F 31 in Calm   1 mph 94% 0 in 0.00 W/m2
08:00 30.6 °F 29.1 °F 31 in Calm   1 mph 94% 0 in 0.00 W/m2
08:05 30.4 °F 28.9 °F 31 in Calm   1 mph 94% 0 in 0.00 W/m2
08:10 30.4 °F 28.9 °F 31 in NW 0.9 mph 1 mph 94% 0 in 0.00 W/m2
08:15 30.4 °F 29.1 °F 31 in Calm     95% 0 in 5.00 W/m2
08:20 30.4 °F 28.9 °F 31 in Calm   1 mph 94% 0 in 7.00 W/m2
08:25 30.4 °F 29.1 °F 31 in Calm     95% 0 in 7.00 W/m2
08:30 30.4 °F 28.9 °F 31 in Calm     94% 0 in 9.00 W/m2
08:35 30.4 °F 28.9 °F 31 in Calm   1 mph 94% 0 in 11.00 W/m2
08:40 30.6 °F 29.3 °F 31 in Calm   1 mph 95% 0 in 14.00 W/m2
08:45 30.7 °F 29.3 °F 31 in Calm     94% 0 in 23.00 W/m2
08:50 30.6 °F 29.3 °F 31 in Calm   1 mph 95% 0 in 26.00 W/m2
08:55 30.9 °F 29.5 °F 31 in Calm   1 mph 94% 0 in 25.00 W/m2
09:00 31.3 °F 30 °F 31 in Calm   1 mph 95% 0 in 21.00 W/m2
09:05 31.3 °F 30 °F 31 in NNW 0.9 mph 1 mph 95% 0 in 19.00 W/m2
09:10 31.3 °F 30 °F 31 in Calm   1 mph 95% 0 in 23.00 W/m2
09:15 31.6 °F 30.4 °F 31 in Calm     95% 0 in 23.00 W/m2
09:20 31.8 °F 30.6 °F 31 in Calm     95% 0 in 21.00 W/m2
09:25 31.3 °F 30 °F 31 in Calm     95% 0 in 26.00 W/m2
09:30 31.8 °F 30.6 °F 31 in Calm   1 mph 95% 0 in 25.00 W/m2
09:35 31.5 °F 30.2 °F 31 in NNW 0.9 mph 2 mph 95% 0 in 33.00 W/m2
09:40 32.2 °F 30.9 °F 31 in Calm     95% 0 in 37.00 W/m2
09:45 32.5 °F 31.3 °F 31 in Calm   1 mph 95% 0 in 42.00 W/m2
09:50 32.7 °F 31.5 °F 31 in Calm     95% 0 in 49.00 W/m2
09:55 33.4 °F 32.2 °F 31 in Calm     95% 0 in 60.00 W/m2
10:00 33.6 °F 32.4 °F 31 in Calm     95% 0 in 69.00 W/m2
10:05 34.2 °F 32.5 °F 31 in Calm     94% 0 in 77.00 W/m2
10:10 34.7 °F 33.1 °F 31 in Calm   1 mph 94% 0 in 84.00 W/m2
10:15 34.9 °F 33.3 °F 31 in Calm   1 mph 94% 0 in 95.00 W/m2
10:20 36 °F 34.3 °F 31 in Calm   1 mph 94% 0 in 105.00 W/m2
10:25 36.7 °F 35.1 °F 31 in Calm   1 mph 94% 0 in 114.00 W/m2
10:30 36.3 °F 34.7 °F 31 in Calm     94% 0 in 125.00 W/m2
10:35 36.9 °F 35.1 °F 31 in Calm     93% 0 in 137.00 W/m2
10:40 37.6 °F 35.8 °F 31 in Calm   1 mph 93% 0 in 151.00 W/m2
10:45 38.3 °F 36.1 °F 31 in Calm     92% 0 in 162.00 W/m2
10:50 39.7 °F 37.4 °F 31 in Calm     91% 0 in 167.00 W/m2
10:55 39.2 °F 36.3 °F 31 in Calm   1 mph 89% 0 in 171.00 W/m2
11:00 39.2 °F 36 °F 31 in NNW 0.9 mph 2 mph 88% 0 in 172.00 W/m2
11:05 39 °F 35.8 °F 31 in NNW 0.9 mph 2 mph 88% 0 in 178.00 W/m2
11:10 39.4 °F 36.1 °F 31 in NW 2.9 mph 3 mph 88% 0 in 183.00 W/m2
11:15 39.7 °F 36.5 °F 31 in West 4 mph 4 mph 88% 0 in 188.00 W/m2
11:20 39.4 °F 35.8 °F 31 in WNW 0.9 mph 4 mph 87% 0 in 193.00 W/m2
11:25 39.7 °F 36.1 °F 31 in West 4.9 mph 5 mph 87% 0 in 202.00 W/m2
11:30 39.7 °F 36.1 °F 31 in West 4 mph 5 mph 87% 0 in 207.00 W/m2
11:35 39.7 °F 36.1 °F 31 in West 4 mph 5 mph 87% 0 in 213.00 W/m2
11:40 40.3 °F 36.7 °F 31 in West 2 mph 4 mph 87% 0 in 216.00 W/m2
11:45 40.5 °F 36.9 °F 31 in WNW 4 mph 4 mph 87% 0 in 221.00 W/m2
11:50 40.3 °F 36.7 °F 31 in Calm   4 mph 87% 0 in 223.00 W/m2
11:55 41.7 °F 38.1 °F 31 in WNW 2 mph 2 mph 87% 0 in 227.00 W/m2
12:00 42.1 °F 38.1 °F 31 in West 2 mph 4 mph 86% 0 in 234.00 W/m2
12:05 41.7 °F 37.6 °F 31 in West 2.9 mph 6 mph 85% 0 in 237.00 W/m2
12:10 41.4 °F 37.2 °F 31 in WNW 4.9 mph 7 mph 85% 0 in 237.00 W/m2
12:15 42.1 °F 38.1 °F 31 in West 2.9 mph 5 mph 86% 0 in 244.00 W/m2
12:20 42.3 °F 38.3 °F 31 in NW 0.9 mph 4 mph 86% 0.01 in 246.00 W/m2
12:25 42.3 °F 38.3 °F 31 in WNW 2 mph 8 mph 86% 0.01 in 251.00 W/m2
12:30 42.8 °F 38.8 °F 31 in NW 6 mph 6 mph 86% 0.01 in 253.00 W/m2
12:35 43 °F 38.8 °F 31 in WNW 2.9 mph 6 mph 85% 0.01 in 255.00 W/m2
12:40 43 °F 38.8 °F 31 in West 2.9 mph 6 mph 85% 0.01 in 257.00 W/m2
12:45 43.2 °F 39 °F 31 in WNW 4.9 mph 7 mph 85% 0.01 in 251.00 W/m2
12:50 43.5 °F 39.4 °F 30.9 in WNW 2.9 mph 4 mph 85% 0.01 in 239.00 W/m2
12:55 43.5 °F 39 °F 30.9 in West 4.9 mph 8 mph 84% 0.01 in 243.00 W/m2
13:00 43.5 °F 39 °F 30.9 in West 4 mph 6 mph 84% 0.01 in 239.00 W/m2
13:05 44.2 °F 39.7 °F 30.9 in West 2 mph 5 mph 84% 0.01 in 223.00 W/m2
13:10 44.4 °F 39.6 °F 30.9 in West 4 mph 5 mph 83% 0.01 in 218.00 W/m2
13:15 44.2 °F 39.4 °F 30.9 in West 2.9 mph 4 mph 83% 0.01 in 213.00 W/m2
13:20 44.8 °F 39.9 °F 30.9 in West 4.9 mph 6 mph 83% 0 in 213.00 W/m2
13:25 45 °F 39.7 °F 30.9 in West 4.9 mph 7 mph 82% 0 in 197.00 W/m2
13:30 45 °F 39.6 °F 30.9 in WNW 8.1 mph 8 mph 81% 0 in 200.00 W/m2
13:35 45.1 °F 39.7 °F 30.9 in West 4 mph 5 mph 81% 0 in 202.00 W/m2
13:40 45.5 °F 39.7 °F 30.9 in NW 2.9 mph 4 mph 80% 0 in 211.00 W/m2
13:45 45.5 °F 39.4 °F 30.9 in WNW 2 mph 5 mph 79% 0 in 213.00 W/m2
13:50 45.7 °F 39.6 °F 30.9 in NW 4 mph 5 mph 79% 0 in 207.00 W/m2
13:55 46 °F 39.6 °F 30.9 in NW 4 mph 7 mph 78% 0 in 202.00 W/m2
14:00 45.9 °F 39.4 °F 30.9 in West 4 mph 7 mph 78% 0 in 193.00 W/m2
14:05 45.9 °F 39 °F 30.9 in WNW 4 mph 7 mph 77% 0 in 179.00 W/m2
14:10 46 °F 39.6 °F 30.9 in WSW 4 mph 5 mph 78% 0 in 172.00 W/m2
14:15 46.4 °F 39.6 °F 30.9 in WSW 2.9 mph 6 mph 77% 0 in 165.00 W/m2
14:20 46.4 °F 39.6 °F 30.9 in WNW 2 mph 5 mph 77% 0 in 149.00 W/m2
14:25 46.2 °F 39.4 °F 30.9 in WNW 0.9 mph 4 mph 77% 0 in 148.00 W/m2
14:30 46.6 °F 39.7 °F 30.9 in WNW 2 mph 3 mph 77% 0 in 148.00 W/m2
14:35 46.4 °F 39.6 °F 30.9 in WSW 6 mph 6 mph 77% 0 in 142.00 W/m2
14:40 46.2 °F 39.4 °F 30.9 in West 0.9 mph 5 mph 77% 0 in 137.00 W/m2
14:45 46.6 °F 39.7 °F 30.9 in West 2.9 mph 5 mph 77% 0 in 130.00 W/m2
14:50 46 °F 39.2 °F 30.9 in West 4 mph 5 mph 77% 0 in 121.00 W/m2
14:55 45.7 °F 38.8 °F 30.9 in West 4.9 mph 7 mph 77% 0 in 111.00 W/m2
15:00 45.9 °F 39 °F 30.9 in WNW 6 mph 6 mph 77% 0 in 104.00 W/m2
15:05 45.7 °F 38.8 °F 30.9 in WNW 2 mph 5 mph 77% 0 in 97.00 W/m2
15:10 45.9 °F 39.4 °F 30.9 in West 2 mph 5 mph 78% 0 in 90.00 W/m2
15:15 45.9 °F 39.4 °F 30.9 in West 2.9 mph 4 mph 78% 0 in 83.00 W/m2
15:20 45.9 °F 39.4 °F 30.9 in West 2 mph 4 mph 78% 0 in 72.00 W/m2
15:25 45.5 °F 38.7 °F 30.9 in WNW 4.9 mph 5 mph 77% 0 in 63.00 W/m2
15:30 45.3 °F 38.1 °F 30.9 in West 2 mph 5 mph 76% 0 in 56.00 W/m2
15:35 45.3 °F 38.1 °F 30.9 in NW 2 mph 3 mph 76% 0 in 47.00 W/m2
15:40 45.1 °F 37.9 °F 30.9 in WNW 4 mph 5 mph 76% 0 in 40.00 W/m2
15:45 45 °F 38.1 °F 30.9 in WNW 2.9 mph 4 mph 77% 0 in 33.00 W/m2
15:50 45.1 °F 38.3 °F 30.9 in WNW 2 mph 2 mph 77% 0 in 26.00 W/m2
15:55 45.1 °F 38.7 °F 30.9 in WNW 0.9 mph 4 mph 78% 0 in 23.00 W/m2
16:00 45.3 °F 38.8 °F 30.9 in WNW 0.9 mph 2 mph 78% 0 in 19.00 W/m2
16:05 45.7 °F 39.2 °F 30.9 in WNW 2 mph 2 mph 78% 0 in 18.00 W/m2
16:10 45.3 °F 38.8 °F 30.9 in Calm   2 mph 78% 0 in 14.00 W/m2
16:15 45.1 °F 39 °F 30.9 in WNW 0.9 mph 2 mph 79% 0 in 12.00 W/m2
16:20 45 °F 38.8 °F 30.9 in Calm   2 mph 79% 0 in 11.00 W/m2
16:25 44.8 °F 38.7 °F 30.9 in Calm   1 mph 79% 0 in 9.00 W/m2
16:30 44.2 °F 38.5 °F 30.9 in Calm     80% 0 in 7.00 W/m2
16:35 43.9 °F 38.1 °F 30.9 in Calm   1 mph 80% 0 in 5.00 W/m2
16:40 43.2 °F 37.8 °F 30.9 in WNW 3 mph 3 mph 81% 0 in 0.00 W/m2
16:45 42.4 °F 37.4 °F 30.9 in WNW 2 mph 2 mph 82% 0 in 0.00 W/m2
16:50 42.3 °F 37.4 °F 30.9 in Calm     83% 0 in 0.00 W/m2
16:55 41.5 °F 36.7 °F 30.9 in WNW 2 mph 2 mph 83% 0 in 0.00 W/m2
17:00 40.8 °F 36.3 °F 30.9 in WNW 2 mph 3 mph 84% 0 in 0.00 W/m2
17:05 40.5 °F 36.3 °F 30.9 in WNW 0.9 mph 2 mph 85% 0 in 0.00 W/m2
17:10 39.9 °F 35.8 °F 30.9 in Calm   2 mph 85% 0 in 0.00 W/m2
17:15 39.4 °F 35.6 °F 30.9 in Calm   1 mph 86% 0 in 0.00 W/m2
17:20 39.4 °F 35.6 °F 30.9 in Calm     86% 0 in 0.00 W/m2
17:25 38.8 °F 35.1 °F 30.9 in Calm   2 mph 86% 0 in 0.00 W/m2
17:30 38.8 °F 35.2 °F 30.9 in Calm   1 mph 87% 0 in 0.00 W/m2
17:35 38.8 °F 35.2 °F 30.9 in WNW 0.9 mph 1 mph 87% 0 in 0.00 W/m2
17:40 38.8 °F 35.6 °F 30.9 in Calm     88% 0 in 0.00 W/m2
17:45 38.1 °F 34.9 °F 30.9 in WNW 0.9 mph 3 mph 88% 0 in 0.00 W/m2
17:50 37.9 °F 34.7 °F 30.9 in Calm   2 mph 88% 0 in 0.00 W/m2
17:55 37.9 °F 34.7 °F 30.9 in Calm     88% 0 in 0.00 W/m2
18:00 37.9 °F 35.1 °F 30.9 in Calm   1 mph 89% 0 in 0.00 W/m2
18:05 37.9 °F 35.1 °F 30.9 in Calm     89% 0 in 0.00 W/m2
18:10 37.9 °F 35.1 °F 30.9 in Calm   1 mph 89% 0 in 0.00 W/m2
18:15 37.6 °F 34.7 °F 30.9 in Calm     89% 0 in 0.00 W/m2
18:20 37.6 °F 34.7 °F 30.9 in Calm   1 mph 89% 0 in 0.00 W/m2
18:25 37.4 °F 34.5 °F 30.9 in Calm   1 mph 89% 0 in 0.00 W/m2
18:30 37.2 °F 34.3 °F 30.9 in WNW 0.9 mph 1 mph 89% 0 in 0.00 W/m2
18:35 37 °F 34.3 °F 30.9 in WNW 0.9 mph 1 mph 90% 0 in 0.00 W/m2
18:40 36.7 °F 33.8 °F 30.9 in Calm   1 mph 89% 0 in 0.00 W/m2
18:45 36.7 °F 34 °F 30.9 in Calm     90% 0 in 0.00 W/m2
18:50 36.5 °F 33.8 °F 30.9 in WNW 0.9 mph 1 mph 90% 0 in 0.00 W/m2
18:55 36.3 °F 33.6 °F 30.9 in Calm     90% 0 in 0.00 W/m2
19:00 36.1 °F 33.4 °F 30.9 in Calm     90% 0 in 0.00 W/m2
19:05 36 °F 33.3 °F 30.9 in Calm     90% 0 in 0.00 W/m2
19:10 35.8 °F 33.1 °F 30.9 in Calm   1 mph 90% 0 in 0.00 W/m2
19:15 35.8 °F 33.1 °F 30.9 in Calm   1 mph 90% 0 in 0.00 W/m2
19:20 36 °F 33.3 °F 30.9 in Calm   1 mph 90% 0 in 0.00 W/m2
19:25 35.6 °F 33.3 °F 30.9 in Calm   1 mph 91% 0 in 0.00 W/m2
19:30 35.4 °F 33.1 °F 30.9 in Calm   1 mph 91% 0 in 0.00 W/m2
19:35 35.2 °F 32.9 °F 30.9 in Calm   1 mph 91% 0 in 0.00 W/m2
19:40 35.2 °F 32.9 °F 30.9 in Calm   1 mph 91% 0 in 0.00 W/m2
19:45 35.2 °F 32.9 °F 30.9 in Calm   1 mph 91% 0 in 0.00 W/m2
19:50 35.2 °F 32.9 °F 30.9 in Calm     91% 0 in 0.00 W/m2
19:55 35.1 °F 32.7 °F 30.9 in Calm     91% 0 in 0.00 W/m2
20:00 34.7 °F 32.4 °F 30.9 in WNW 0.9 mph 2 mph 91% 0 in 0.00 W/m2
20:05 34.7 °F 32.4 °F 30.9 in WNW 2 mph 3 mph 91% 0 in 0.00 W/m2
20:10 35.1 °F 32.7 °F 30.9 in Calm   2 mph 91% 0 in 0.00 W/m2
20:15 35.1 °F 32.7 °F 30.9 in Calm     91% 0 in 0.00 W/m2
20:20 34.9 °F 32.7 °F 30.9 in Calm     92% 0 in 0.00 W/m2
20:26 34.5 °F 32.4 °F 30.9 in Calm     92% 0 in 0.00 W/m2
20:30 34.5 °F 32.4 °F 30.9 in Calm     92% 0 in 0.00 W/m2
20:35 34.3 °F 32 °F 30.9 in Calm     91% 0 in 0.00 W/m2
20:40 34.2 °F 32 °F 30.9 in Calm     92% 0 in 0.00 W/m2
20:45 34.2 °F 32 °F 30.9 in Calm     92% 0 in 0.00 W/m2
20:50 34.2 °F 32 °F 30.9 in Calm     92% 0 in 0.00 W/m2
20:55 34 °F 31.8 °F 30.9 in Calm   1 mph 92% 0 in 0.00 W/m2
21:00 34 °F 31.8 °F 30.9 in WNW 2 mph 3 mph 92% 0 in 0.00 W/m2
21:05 34 °F 31.8 °F 30.9 in WNW 0.9 mph 2 mph 92% 0 in 0.00 W/m2
21:10 33.8 °F 31.6 °F 30.9 in Calm   1 mph 92% 0 in 0.00 W/m2
21:15 33.6 °F 31.5 °F 30.9 in Calm     92% 0 in 0.00 W/m2
21:20 33.8 °F 31.6 °F 30.9 in Calm     92% 0 in 0.00 W/m2
21:26 34 °F 31.8 °F 30.9 in Calm     92% 0 in 0.00 W/m2
21:30 33.8 °F 31.6 °F 30.9 in Calm   1 mph 92% 0 in 0.00 W/m2
21:35 33.6 °F 31.5 °F 30.9 in Calm   1 mph 92% 0 in 0.00 W/m2
21:40 33.4 °F 31.3 °F 30.9 in Calm   2 mph 92% 0 in 0.00 W/m2
21:45 33.1 °F 31.1 °F 30.9 in Calm   1 mph 92% 0 in 0.00 W/m2
21:50 33.3 °F 31.1 °F 30.9 in Calm     92% 0 in 0.00 W/m2
21:55 33.1 °F 31.1 °F 30.9 in Calm     92% 0 in 0.00 W/m2
22:00 33.1 °F 31.1 °F 30.9 in Calm   1 mph 92% 0 in 0.00 W/m2
22:05 32.9 °F 30.9 °F 30.9 in Calm   1 mph 92% 0 in 0.00 W/m2
22:10 32.9 °F 30.9 °F 30.9 in WNW 0.9 mph 1 mph 92% 0 in 0.00 W/m2
22:15 32.9 °F 30.9 °F 30.9 in WNW 0.9 mph 2 mph 92% 0 in 0.00 W/m2
22:20 32.9 °F 30.9 °F 30.9 in WNW 0.9 mph 1 mph 92% 0 in 0.00 W/m2
22:25 32.9 °F 30.9 °F 30.9 in WNW 0.9 mph 2 mph 92% 0 in 0.00 W/m2
22:30 32.7 °F 30.9 °F 30.9 in Calm   1 mph 93% 0 in 0.00 W/m2
22:35 32.7 °F 30.9 °F 30.9 in WNW 0.9 mph 2 mph 93% 0 in 0.00 W/m2
22:40 32.7 °F 30.9 °F 30.9 in WNW 2 mph 2 mph 93% 0 in 0.00 W/m2
22:45 32.4 °F 30.6 °F 30.9 in Calm   1 mph 93% 0 in 0.00 W/m2
22:50 32.2 °F 30.4 °F 30.9 in Calm   1 mph 93% 0 in 0.00 W/m2
22:55 32.2 °F 30.4 °F 30.9 in WNW 0.9 mph 2 mph 93% 0 in 0.00 W/m2
23:00 32.2 °F 30.4 °F 30.9 in Calm   1 mph 93% 0 in 0.00 W/m2
23:05 32.4 °F 30.6 °F 30.9 in Calm   1 mph 93% 0 in 0.00 W/m2
23:10 32.4 °F 30.6 °F 30.9 in Calm     93% 0 in 0.00 W/m2
23:15 32.2 °F 30.4 °F 30.9 in Calm     93% 0 in 0.00 W/m2
23:20 32.2 °F 30.4 °F 30.9 in Calm   1 mph 93% 0 in 0.00 W/m2
23:25 32.2 °F 30.4 °F 30.9 in WNW 0.9 mph 1 mph 93% 0 in 0.00 W/m2
23:30 32.2 °F 30.4 °F 30.9 in WNW 0.9 mph 1 mph 93% 0 in 0.00 W/m2
23:35 32 °F 30.2 °F 30.9 in WNW 0.9 mph 1 mph 93% 0 in 0.00 W/m2
23:40 32 °F 30.2 °F 30.9 in Calm   1 mph 93% 0 in 0.00 W/m2
23:45 32 °F 30.2 °F 30.9 in Calm   1 mph 93% 0 in 0.00 W/m2
23:50 31.8 °F 30 °F 30.9 in Calm   1 mph 93% 0 in 0.00 W/m2
23:55 31.6 °F 29.8 °F 30.9 in Calm   1 mph 93% 0 in 0.00 W/m2